createdAt,value
2023-02-18T00:01:36.755Z,0.68
2023-02-18T00:04:04.829Z,0.70
2023-02-18T00:06:36.958Z,1.23
2023-02-18T00:09:06.568Z,1.08
2023-02-18T00:11:36.092Z,0.77
2023-02-18T00:14:07.239Z,0.93
2023-02-18T00:16:35.307Z,0.40
2023-02-18T00:19:05.997Z,1.02
2023-02-18T00:21:35.483Z,0.98
2023-02-18T00:24:05.331Z,0.75
2023-02-18T00:26:33.558Z,0.70
2023-02-18T00:29:01.992Z,1.17
2023-02-18T00:31:32.865Z,0.80
2023-02-18T00:34:03.616Z,0.77
2023-02-18T00:36:31.891Z,0.95
2023-02-18T00:39:04.138Z,0.80
2023-02-18T00:41:34.747Z,0.95
2023-02-18T00:44:02.852Z,0.95
2023-02-18T00:46:30.954Z,0.70
2023-02-18T00:49:01.849Z,0.90
2023-02-18T00:51:29.863Z,0.80
2023-02-18T00:53:59.403Z,1.20
2023-02-18T00:56:27.362Z,0.98
2023-02-18T00:58:55.605Z,0.85
2023-02-18T01:01:24.572Z,0.70
2023-02-18T01:03:52.417Z,0.70
2023-02-18T01:06:22.325Z,1.33
2023-02-18T01:08:50.527Z,0.73
2023-02-18T01:11:18.547Z,0.77
2023-02-18T01:13:46.973Z,0.60
2023-02-18T01:16:14.804Z,0.82
2023-02-18T01:18:42.864Z,0.60
2023-02-18T01:21:11.252Z,0.65
2023-02-18T01:23:40.636Z,0.73
2023-02-18T01:26:09.720Z,1.00
2023-02-18T01:28:40.430Z,1.02
2023-02-18T01:31:10.847Z,0.75
2023-02-18T01:33:39.227Z,0.70
2023-02-18T01:36:08.430Z,0.60
2023-02-18T01:38:36.862Z,1.02
2023-02-18T01:41:04.945Z,0.70
2023-02-18T01:43:33.800Z,0.52
2023-02-18T01:46:04.950Z,0.70
2023-02-18T01:48:43.320Z,2.17
2023-02-18T01:51:24.443Z,0.50
2023-02-18T01:54:15.606Z,0.80
2023-02-18T01:56:50.721Z,1.30
2023-02-18T01:59:50.146Z,1.00
2023-02-18T02:02:23.488Z,0.70
2023-02-18T02:04:51.832Z,0.82
2023-02-18T02:07:21.274Z,0.70
2023-02-18T02:09:50.590Z,0.95
2023-02-18T02:12:26.021Z,1.20
2023-02-18T02:14:59.716Z,1.00
2023-02-18T02:18:00.937Z,0.70
2023-02-18T02:20:40.553Z,0.85
2023-02-18T02:23:17.354Z,0.93
2023-02-18T02:25:45.045Z,1.08
2023-02-18T02:28:15.543Z,0.80
2023-02-18T02:31:07.086Z,0.95
2023-02-18T02:33:45.809Z,1.08
2023-02-18T02:36:24.398Z,1.00
2023-02-18T02:38:59.893Z,1.10
2023-02-18T02:41:36.712Z,0.80
2023-02-18T02:44:18.555Z,1.27
2023-02-18T02:46:48.573Z,1.38
2023-02-18T02:49:20.571Z,0.90
2023-02-18T02:51:51.250Z,0.82
2023-02-18T02:54:25.105Z,1.00
2023-02-18T02:57:16.318Z,1.02
2023-02-18T03:00:05.217Z,0.90
2023-02-18T03:03:24.405Z,1.10
2023-02-18T03:06:14.541Z,1.05
2023-02-18T03:09:00.163Z,1.15
2023-02-18T03:11:30.709Z,1.20
2023-02-18T03:14:29.130Z,1.45
2023-02-18T03:17:11.663Z,1.50
2023-02-18T03:19:55.843Z,1.50
2023-02-18T03:22:31.806Z,1.60
2023-02-18T03:25:02.931Z,1.17
2023-02-18T03:27:35.308Z,1.52
2023-02-18T03:30:13.732Z,1.80
2023-02-18T03:32:42.213Z,1.52
2023-02-18T03:35:17.845Z,1.50
2023-02-18T03:37:53.231Z,1.52
2023-02-18T03:40:23.796Z,1.90
2023-02-18T03:42:51.666Z,1.80
2023-02-18T03:45:19.626Z,1.80
2023-02-18T03:47:47.606Z,2.03
2023-02-18T03:50:17.136Z,1.67
2023-02-18T03:52:45.084Z,3.67
2023-02-18T03:55:13.293Z,2.20
2023-02-18T03:57:41.426Z,1.90
2023-02-18T04:00:10.836Z,2.10
2023-02-18T04:02:41.672Z,2.25
2023-02-18T04:05:09.862Z,2.33
2023-02-18T04:07:37.765Z,2.33
2023-02-18T04:10:06.771Z,2.60
2023-02-18T04:12:34.663Z,2.42
2023-02-18T04:15:02.529Z,2.40
2023-02-18T04:17:30.472Z,2.78
2023-02-18T04:48:15.225Z,3.33
2023-02-18T04:50:44.073Z,3.85
2023-02-18T04:53:12.084Z,3.08
2023-02-18T04:55:40.083Z,3.47
2023-02-18T04:58:07.942Z,3.58
2023-02-18T05:00:36.065Z,3.13
2023-02-18T05:03:29.984Z,3.78
2023-02-18T05:05:58.228Z,3.78
2023-02-18T05:08:26.049Z,2.55
2023-02-18T05:10:53.862Z,3.25
2023-02-18T05:13:23.022Z,2.85
2023-02-18T05:15:51.160Z,3.65
2023-02-18T05:18:19.075Z,3.20
2023-02-18T05:20:47.017Z,2.88
2023-02-18T05:23:15.018Z,3.60
2023-02-18T05:25:42.739Z,2.88
2023-02-18T05:28:10.506Z,3.42
2023-02-18T05:30:38.984Z,2.67
2023-02-18T05:33:06.768Z,3.15
2023-02-18T05:35:34.592Z,3.50
2023-02-18T05:38:02.545Z,2.67
2023-02-18T05:40:30.238Z,2.50
2023-02-18T05:42:58.067Z,2.78
2023-02-18T05:45:25.886Z,2.90
2023-02-18T05:47:53.590Z,2.53
2023-02-18T05:50:21.652Z,3.00
2023-02-18T05:52:49.592Z,3.03
2023-02-18T05:55:17.322Z,2.90
2023-02-18T05:57:45.242Z,3.13
2023-02-18T06:00:13.859Z,3.00
2023-02-18T06:02:41.747Z,3.55
2023-02-18T06:05:10.085Z,2.78
2023-02-18T06:07:38.371Z,2.85
2023-02-18T06:10:07.374Z,2.53
2023-02-18T06:12:35.178Z,2.83
2023-02-18T06:15:03.162Z,2.50
2023-02-18T06:17:31.010Z,2.75
2023-02-18T06:19:58.810Z,2.63
2023-02-18T06:22:26.766Z,3.05
2023-02-18T06:24:54.683Z,3.38
2023-02-18T06:27:22.605Z,3.13
2023-02-18T06:29:50.445Z,3.13
2023-02-18T06:32:18.407Z,3.13
2023-02-18T06:34:46.156Z,3.63
2023-02-18T06:37:14.114Z,3.22
2023-02-18T06:39:41.956Z,3.92
2023-02-18T06:42:09.993Z,3.53
2023-02-18T06:44:38.220Z,2.88
2023-02-18T06:47:05.947Z,3.30
2023-02-18T06:49:33.675Z,3.83
2023-02-18T06:52:01.435Z,5.28
2023-02-18T06:54:29.318Z,5.80
2023-02-18T06:56:56.991Z,4.43
2023-02-18T06:59:24.978Z,4.53
2023-02-18T07:01:52.892Z,4.32
2023-02-18T07:04:20.729Z,4.53
2023-02-18T07:06:48.441Z,3.85
2023-02-18T07:09:16.241Z,3.28
2023-02-18T07:11:44.072Z,3.92
2023-02-18T07:14:14.961Z,3.25
2023-02-18T07:16:43.078Z,3.38
2023-02-18T07:19:10.923Z,3.80
2023-02-18T07:21:39.851Z,4.10
2023-02-18T07:24:07.848Z,3.95
2023-02-18T07:26:35.596Z,3.53
2023-02-18T07:29:03.364Z,3.65
2023-02-18T07:31:31.312Z,3.30
2023-02-18T07:33:59.266Z,3.08
2023-02-18T07:36:26.975Z,3.50
2023-02-18T07:38:54.883Z,3.40
2023-02-18T07:41:23.536Z,3.03
2023-02-18T07:43:51.442Z,3.03
2023-02-18T07:46:19.341Z,2.35
2023-02-18T07:48:47.106Z,2.20
2023-02-18T07:51:15.016Z,3.30
2023-02-18T07:53:43.440Z,2.53
2023-02-18T07:56:11.210Z,2.50
2023-02-18T07:58:39.941Z,2.67
2023-02-18T08:01:13.000Z,2.30
2023-02-18T08:03:40.883Z,3.10
2023-02-18T08:06:09.594Z,3.08
2023-02-18T08:08:37.785Z,2.78
2023-02-18T08:11:18.602Z,2.33
2023-02-18T08:13:48.457Z,2.25
2023-02-18T08:16:18.087Z,2.55
2023-02-18T08:18:48.150Z,2.65
2023-02-18T08:21:16.954Z,2.33
2023-02-18T08:23:45.121Z,1.60
2023-02-18T08:26:13.518Z,1.83
2023-02-18T08:28:45.692Z,1.50
2023-02-18T08:31:25.802Z,1.75
2023-02-18T08:33:55.527Z,1.00
2023-02-18T08:36:23.788Z,0.60
2023-02-18T08:38:51.800Z,0.38
2023-02-18T08:41:19.774Z,0.40
2023-02-18T08:43:48.352Z,0.20
2023-02-18T08:46:25.209Z,0.30
2023-02-18T08:49:01.603Z,0.30
2023-02-18T08:51:32.565Z,0.40
2023-02-18T08:54:01.748Z,0.40
2023-02-18T08:56:29.721Z,0.20
2023-02-18T08:58:57.635Z,0.28
2023-02-18T09:01:25.557Z,0.25
2023-02-18T09:03:53.637Z,0.60
2023-02-18T09:06:21.577Z,0.25
2023-02-18T09:08:49.650Z,0.10
2023-02-18T09:11:17.919Z,0.30
2023-02-18T09:13:46.231Z,0.20
2023-02-18T09:16:18.597Z,0.30
2023-02-18T09:18:47.974Z,0.20
2023-02-18T09:21:17.077Z,0.20
2023-02-18T09:23:45.008Z,0.20
2023-02-18T09:26:16.838Z,0.30
2023-02-18T09:28:44.699Z,0.22
2023-02-18T09:31:16.588Z,0.10
2023-02-18T09:33:46.864Z,0.20
2023-02-18T09:36:15.825Z,0.10
2023-02-18T09:38:44.167Z,0.20
2023-02-18T09:41:38.466Z,0.10
2023-02-18T09:44:14.814Z,0.20
2023-02-18T09:46:57.807Z,0.10
2023-02-18T09:49:37.817Z,0.30
2023-02-18T09:52:13.701Z,0.20
2023-02-18T09:54:41.545Z,0.20
2023-02-18T09:57:37.190Z,0.43
2023-02-18T10:00:11.706Z,0.20
2023-02-18T10:02:45.909Z,0.30
2023-02-18T10:05:15.297Z,0.38
2023-02-18T10:07:46.941Z,0.20
2023-02-18T10:10:31.459Z,0.32
2023-02-18T10:12:59.686Z,0.20
2023-02-18T10:15:30.883Z,0.10
2023-02-18T10:17:59.527Z,0.20
2023-02-18T10:20:29.906Z,0.10
2023-02-18T10:23:00.878Z,0.20
2023-02-18T10:25:29.986Z,0.20
2023-02-18T10:27:58.683Z,0.10
2023-02-18T10:30:38.438Z,0.08
2023-02-18T10:33:31.208Z,0.30
2023-02-18T10:36:21.695Z,0.32
2023-02-18T10:39:02.485Z,0.20
2023-02-18T10:41:48.675Z,0.23
2023-02-18T10:44:19.397Z,0.30
2023-02-18T10:46:59.882Z,0.20
2023-02-18T10:49:49.793Z,0.20
2023-02-18T10:52:19.547Z,0.20
2023-02-18T10:54:53.154Z,0.20
2023-02-18T10:57:24.078Z,0.40
2023-02-18T11:00:15.190Z,0.40
2023-02-18T11:02:43.523Z,0.30
2023-02-18T11:05:23.675Z,0.20
2023-02-18T11:07:53.932Z,0.40
2023-02-18T11:10:26.073Z,0.30
2023-02-18T11:13:01.231Z,0.30
2023-02-18T11:15:30.138Z,0.30
2023-02-18T11:18:12.108Z,0.60
2023-02-18T11:20:40.421Z,0.40
2023-02-18T11:23:08.202Z,0.30
2023-02-18T11:25:38.102Z,0.47
2023-02-18T11:28:07.142Z,0.50
2023-02-18T11:30:37.540Z,0.30
2023-02-18T11:33:16.124Z,0.45
2023-02-18T11:35:59.542Z,0.52
2023-02-18T11:38:36.585Z,0.60
2023-02-18T11:41:12.421Z,0.50
2023-02-18T11:43:51.606Z,0.50
2023-02-18T11:46:27.745Z,0.63
2023-02-18T11:48:56.210Z,0.43
2023-02-18T11:51:36.970Z,0.60
2023-02-18T11:54:23.041Z,0.50
2023-02-18T11:57:01.199Z,0.40
2023-02-18T11:59:33.029Z,0.40
2023-02-18T12:02:22.846Z,0.47
2023-02-18T12:05:05.511Z,0.47
2023-02-18T12:07:47.429Z,0.43
2023-02-18T12:10:30.410Z,0.47
2023-02-18T12:13:17.938Z,0.40
2023-02-18T12:15:45.916Z,0.95
2023-02-18T12:18:44.607Z,0.55
2023-02-18T12:21:24.192Z,0.30
2023-02-18T12:24:16.533Z,0.20
2023-02-18T12:26:49.861Z,0.47
2023-02-18T12:29:36.715Z,0.50
2023-02-18T12:32:26.679Z,0.60
2023-02-18T12:35:09.301Z,0.40
2023-02-18T12:37:49.759Z,0.68
2023-02-18T12:40:37.739Z,0.95
2023-02-18T12:43:17.977Z,0.82
2023-02-18T12:45:51.122Z,0.70
2023-02-18T12:48:22.838Z,0.63
2023-02-18T12:51:18.599Z,0.73
2023-02-18T12:54:26.463Z,0.80
2023-02-18T12:57:14.897Z,0.70
2023-02-18T12:59:58.164Z,1.02
2023-02-18T13:03:14.630Z,1.00
2023-02-18T13:06:02.285Z,0.93
2023-02-18T13:08:30.275Z,0.90
2023-02-18T13:11:11.602Z,0.82
2023-02-18T13:13:49.712Z,0.80
2023-02-18T13:16:20.343Z,1.30
2023-02-18T13:19:20.512Z,0.90
2023-02-18T13:21:51.330Z,1.02
2023-02-18T13:24:30.142Z,0.93
2023-02-18T13:27:22.320Z,0.93
2023-02-18T13:30:10.269Z,0.95
2023-02-18T13:32:51.309Z,1.00
2023-02-18T13:35:24.048Z,0.82
2023-02-18T13:38:19.764Z,1.00
2023-02-18T13:40:47.966Z,0.65
2023-02-18T13:43:27.752Z,0.70
2023-02-18T13:46:09.110Z,0.77
2023-02-18T13:48:46.298Z,0.65
2023-02-18T13:51:29.382Z,0.80
2023-02-18T13:54:27.827Z,0.90
2023-02-18T13:57:26.545Z,0.85
2023-02-18T14:00:17.955Z,0.60
2023-02-18T14:03:00.657Z,0.65
2023-02-18T14:05:40.768Z,0.73
2023-02-18T14:08:31.954Z,0.70
2023-02-18T14:11:14.982Z,0.60
2023-02-18T14:13:44.558Z,0.70
2023-02-18T14:16:12.971Z,0.75
2023-02-18T14:18:40.795Z,0.65
2023-02-18T14:21:14.752Z,0.60
2023-02-18T14:23:44.878Z,0.90
2023-02-18T14:26:19.494Z,0.50
2023-02-18T14:28:55.435Z,1.00
2023-02-18T14:31:32.487Z,0.60
2023-02-18T14:34:24.536Z,0.50
2023-02-18T14:37:04.397Z,0.68
2023-02-18T14:39:42.646Z,0.70
2023-02-18T14:42:28.813Z,0.50
2023-02-18T14:45:38.189Z,0.55
2023-02-18T14:48:36.836Z,1.00
2023-02-18T14:51:05.319Z,0.63
2023-02-18T14:53:34.400Z,1.10
2023-02-18T14:56:05.542Z,0.77
2023-02-18T14:58:37.699Z,0.70
2023-02-18T15:01:22.593Z,0.70
2023-02-18T15:03:51.731Z,0.70
2023-02-18T15:06:24.259Z,0.77
2023-02-18T15:08:52.220Z,0.60
2023-02-18T15:11:23.017Z,0.57
2023-02-18T15:13:51.144Z,0.55
2023-02-18T15:16:33.527Z,1.02
2023-02-18T15:19:07.045Z,0.55
2023-02-18T15:21:43.555Z,0.55
2023-02-18T15:24:24.574Z,0.73
2023-02-18T15:26:52.989Z,0.50
2023-02-18T15:29:24.405Z,0.50
2023-02-18T15:34:37.675Z,0.57
2023-02-18T15:37:08.179Z,0.70
2023-02-18T15:39:38.844Z,0.70
2023-02-18T15:42:15.645Z,0.35
2023-02-18T15:44:48.620Z,0.50
2023-02-18T15:47:17.754Z,0.45
2023-02-18T15:49:55.039Z,0.45
2023-02-18T15:52:31.530Z,0.65
2023-02-18T15:55:05.503Z,0.50
2023-02-18T15:57:36.874Z,0.70
2023-02-18T16:00:29.362Z,0.80
2023-02-18T16:03:21.605Z,0.70
2023-02-18T16:05:50.765Z,0.70
2023-02-18T16:08:26.994Z,1.10
2023-02-18T16:11:02.736Z,0.90
2023-02-18T16:13:31.700Z,1.02
2023-02-18T16:16:01.311Z,1.58
2023-02-18T16:18:30.497Z,1.85
2023-02-18T16:21:07.393Z,1.00
2023-02-18T16:23:43.918Z,1.00
2023-02-18T16:26:24.126Z,1.35
2023-02-18T16:28:53.416Z,1.00
2023-02-18T16:31:22.039Z,1.73
2023-02-18T16:33:50.976Z,0.90
2023-02-18T16:36:19.196Z,1.00
2023-02-18T16:38:47.238Z,1.05
2023-02-18T16:41:16.034Z,1.23
2023-02-18T16:43:43.917Z,1.10
2023-02-18T16:46:19.802Z,1.55
2023-02-18T16:48:50.537Z,1.17
2023-02-18T16:51:21.510Z,1.50
2023-02-18T16:53:49.519Z,1.30
2023-02-18T16:56:25.558Z,1.20
2023-02-18T16:58:53.657Z,1.52
2023-02-18T17:01:30.522Z,1.98
2023-02-18T17:03:59.793Z,1.65
2023-02-18T17:06:28.873Z,1.40
2023-02-18T17:08:56.879Z,1.90
2023-02-18T17:11:28.763Z,1.45
2023-02-18T17:14:00.767Z,1.90
2023-02-18T17:16:29.025Z,3.22
2023-02-18T17:18:56.886Z,1.73
2023-02-18T17:21:26.455Z,1.75
2023-02-18T17:23:54.269Z,2.70
2023-02-18T17:26:25.096Z,1.60
2023-02-18T17:28:54.091Z,1.40
2023-02-18T17:31:26.404Z,1.63
2023-02-18T17:34:01.586Z,2.00
2023-02-18T17:36:29.459Z,1.88
2023-02-18T17:39:01.557Z,1.60
2023-02-18T17:41:30.766Z,1.80
2023-02-18T17:43:58.610Z,1.50
2023-02-18T17:46:26.516Z,2.03
2023-02-18T17:48:54.326Z,1.63
2023-02-18T17:51:27.228Z,1.70
2023-02-18T17:53:55.311Z,1.85
2023-02-18T17:56:23.649Z,1.95
2023-02-18T17:58:54.056Z,1.38
2023-02-18T18:01:24.977Z,1.85
2023-02-18T18:03:55.445Z,1.50
2023-02-18T18:06:23.088Z,1.65
2023-02-18T18:08:51.468Z,2.20
2023-02-18T18:11:25.099Z,1.60
2023-02-18T18:13:53.502Z,1.85
2023-02-18T18:16:21.943Z,2.22
2023-02-18T18:18:49.825Z,1.73
2023-02-18T18:21:25.210Z,2.10
2023-02-18T18:23:53.174Z,1.40
2023-02-18T18:26:21.115Z,2.00
2023-02-18T18:28:49.043Z,2.05
2023-02-18T18:31:18.916Z,1.67
2023-02-18T18:33:49.120Z,1.80
2023-02-18T18:36:18.802Z,1.80
2023-02-18T18:38:47.166Z,1.70
2023-02-18T18:41:18.007Z,1.65
2023-02-18T18:43:46.327Z,1.50
2023-02-18T18:46:14.937Z,1.75
2023-02-18T18:48:43.024Z,1.75
2023-02-18T18:51:25.811Z,1.60
2023-02-18T18:53:53.711Z,1.60
2023-02-18T18:56:22.266Z,1.58
2023-02-18T18:58:50.744Z,1.73
2023-02-18T19:01:27.720Z,1.63
2023-02-18T19:03:55.738Z,1.88
2023-02-18T19:06:23.821Z,1.52
2023-02-18T19:08:51.913Z,1.95
2023-02-18T19:11:19.846Z,1.77
2023-02-18T19:13:47.718Z,1.80
2023-02-18T19:16:17.928Z,1.80
2023-02-18T19:18:46.371Z,2.13
2023-02-18T19:21:14.775Z,1.70
2023-02-18T19:23:42.972Z,1.40
2023-02-18T19:26:11.396Z,1.73
2023-02-18T19:28:39.332Z,1.63
2023-02-18T19:31:11.642Z,1.33
2023-02-18T19:33:40.312Z,1.33
2023-02-18T19:36:12.244Z,1.20
2023-02-18T19:38:41.553Z,1.50
2023-02-18T19:41:18.627Z,1.55
2023-02-18T19:43:49.179Z,1.30
2023-02-18T19:46:18.652Z,1.20
2023-02-18T19:48:52.665Z,1.48
2023-02-18T19:51:26.329Z,1.38
2023-02-18T19:53:54.895Z,1.55
2023-02-18T19:56:24.562Z,1.30
2023-02-18T19:58:55.187Z,1.55
2023-02-18T20:01:23.189Z,1.13
2023-02-18T20:03:51.082Z,1.20
2023-02-18T20:06:20.313Z,1.45
2023-02-18T20:08:48.759Z,1.27
2023-02-18T20:11:19.870Z,1.30
2023-02-18T20:13:48.730Z,1.15
2023-02-18T20:16:16.644Z,1.38
2023-02-18T20:18:44.483Z,1.88
2023-02-18T20:21:15.360Z,1.10
2023-02-18T20:23:43.271Z,1.23
2023-02-18T20:26:13.243Z,1.30
2023-02-18T20:28:41.217Z,1.25
2023-02-18T20:31:14.053Z,1.17
2023-02-18T20:33:42.861Z,1.27
2023-02-18T20:36:14.294Z,1.90
2023-02-18T20:38:42.564Z,1.20
2023-02-18T20:41:17.805Z,0.90
2023-02-18T20:43:46.341Z,1.27
2023-02-18T20:46:19.563Z,1.10
2023-02-18T20:48:48.403Z,0.95
2023-02-18T20:51:18.905Z,0.80
2023-02-18T20:53:47.696Z,1.00
2023-02-18T20:56:15.937Z,1.15
2023-02-18T20:58:43.759Z,1.00
2023-02-18T21:01:13.321Z,1.23
2023-02-18T21:03:42.316Z,1.05
2023-02-18T21:06:13.940Z,1.00
2023-02-18T21:11:12.616Z,0.98
2023-02-18T21:13:40.756Z,1.93
2023-02-18T21:16:09.631Z,1.13
2023-02-18T21:18:37.443Z,1.50
2023-02-18T21:21:06.924Z,1.55
2023-02-18T21:23:35.224Z,1.48
2023-02-18T21:26:06.809Z,1.67
2023-02-18T21:28:34.976Z,1.88
2023-02-18T21:31:03.102Z,1.30
2023-02-18T21:33:30.999Z,1.20
2023-02-18T21:36:03.264Z,1.50
2023-02-18T21:38:31.151Z,1.20
2023-02-18T21:40:59.028Z,1.40
2023-02-18T21:43:29.242Z,1.33
2023-02-18T21:46:07.987Z,1.75
2023-02-18T21:48:54.368Z,1.30
2023-02-18T21:51:41.151Z,1.75
2023-02-18T21:54:11.396Z,1.40
2023-02-18T21:56:40.339Z,1.13
2023-02-18T21:59:08.231Z,1.30
2023-02-18T22:01:36.220Z,1.20
2023-02-18T22:04:04.424Z,1.90
2023-02-18T22:06:32.326Z,2.17
2023-02-18T22:09:04.355Z,1.55
2023-02-18T22:11:33.391Z,1.42
2023-02-18T22:14:01.766Z,1.45
2023-02-18T22:16:29.859Z,1.40
2023-02-18T22:18:58.500Z,1.10
2023-02-18T22:21:26.502Z,1.10
2023-02-18T22:23:54.833Z,1.55
2023-02-18T22:26:23.157Z,1.00
2023-02-18T22:28:56.176Z,1.50
2023-02-18T22:31:25.495Z,1.20
2023-02-18T22:33:54.191Z,0.90
2023-02-18T22:36:23.753Z,1.27
2023-02-18T22:38:51.902Z,1.40
2023-02-18T22:41:21.439Z,1.48
2023-02-18T22:43:53.350Z,1.63
2023-02-18T22:46:21.135Z,1.17
2023-02-18T22:48:49.068Z,1.30
2023-02-18T22:51:18.537Z,1.73
2023-02-18T22:53:46.891Z,1.30
2023-02-18T22:56:16.539Z,1.55
2023-02-18T22:58:47.452Z,1.50
2023-02-18T23:01:29.899Z,1.85
2023-02-18T23:03:59.515Z,1.75
2023-02-18T23:06:27.526Z,2.35
2023-02-18T23:08:55.836Z,1.88
2023-02-18T23:11:23.742Z,1.80
2023-02-18T23:14:10.342Z,2.42
2023-02-18T23:16:57.007Z,2.35
2023-02-18T23:19:26.751Z,2.45
2023-02-18T23:21:54.961Z,2.30
2023-02-18T23:24:23.017Z,2.17
2023-02-18T23:26:51.084Z,2.63
2023-02-18T23:29:19.010Z,2.10
2023-02-18T23:31:46.863Z,2.40
2023-02-18T23:34:16.278Z,3.13
2023-02-18T23:36:44.568Z,2.25
2023-02-18T23:39:13.672Z,2.30
2023-02-18T23:41:41.751Z,2.45
2023-02-18T23:44:11.849Z,2.08
2023-02-18T23:46:40.442Z,3.22
2023-02-18T23:49:08.343Z,2.20
2023-02-18T23:51:36.463Z,2.97
2023-02-18T23:54:05.005Z,2.40
2023-02-18T23:56:33.363Z,2.15
2023-02-18T23:59:03.262Z,3.03
